Time;durP1;ratioP1;P1;durP2;ratioP2;P2;SDS_P1;SDS_P2;PMS_P1;PMS_P2;Temp;Humidity;BMP_temperature;BMP_pressure;BME280_temperature;BME280_humidity;BME280_pressure;Samples;Min_cycle;Max_cycle;Signal;HPM_P1;HPM_P2
2024/04/10 00:02:11;;;;;;;17.23;3.83;;;;;8.00;101640.00;;;;11143036;26;20319;-80
2024/04/10 00:07:13;;;;;;;12.23;2.77;;;;;7.90;101641.00;;;;11158048;26;20295;-81
2024/04/10 00:12:15;;;;;;;20.90;3.73;;;;;7.90;101655.00;;;;11107575;26;20289;-81
2024/04/10 00:17:17;;;;;;;12.97;2.60;;;;;7.80;101647.00;;;;11135077;26;20290;-80
2024/04/10 00:22:18;;;;;;;16.50;2.70;;;;;7.80;101646.00;;;;11153795;26;20302;-80
2024/04/10 00:27:22;;;;;;;14.70;2.90;;;;;7.70;101656.00;;;;11159995;26;21243;-81
2024/04/10 00:32:25;;;;;;;16.80;3.43;;;;;7.70;101659.00;;;;11190612;26;20263;-80
2024/04/10 00:37:26;;;;;;;14.47;2.80;;;;;7.80;101675.00;;;;11111490;26;20339;-80
2024/04/10 00:42:28;;;;;;;14.90;2.90;;;;;7.70;101677.00;;;;11185108;26;20749;-78
2024/04/10 00:47:31;;;;;;;13.73;2.77;;;;;7.70;101672.00;;;;11196276;26;20302;-77
2024/04/10 00:52:35;;;;;;;13.93;2.93;;;;;7.60;101683.00;;;;11170766;26;20259;-77
2024/04/10 00:57:37;;;;;;;16.30;3.37;;;;;7.50;101688.00;;;;11144323;26;20260;-81
2024/04/10 01:02:38;;;;;;;18.47;2.70;;;;;7.50;101687.00;;;;11200571;26;20255;-77
2024/04/10 01:07:43;;;;;;;12.60;2.60;;;;;7.40;101696.00;;;;11195087;26;20264;-77
2024/04/10 01:12:45;;;;;;;17.90;3.10;;;;;7.40;101697.00;;;;11198588;26;20275;-76
2024/04/10 01:17:46;;;;;;;9.10;3.00;;;;;7.40;101709.00;;;;11182907;26;20286;-78
2024/04/10 01:22:50;;;;;;;15.40;2.97;;;;;7.40;101711.00;;;;11160804;26;21086;-79
2024/04/10 01:27:52;;;;;;;13.67;3.03;;;;;7.40;101720.00;;;;11186985;26;20260;-77
2024/04/10 01:32:53;;;;;;;13.33;2.07;;;;;7.30;101724.00;;;;11242480;26;20263;-77
2024/04/10 01:37:55;;;;;;;15.17;2.53;;;;;7.20;101729.00;;;;11141976;26;20945;-77
2024/04/10 01:42:57;;;;;;;12.67;2.30;;;;;7.20;101744.00;;;;11126113;26;20282;-77
2024/04/10 01:47:58;;;;;;;12.33;2.80;;;;;7.20;101741.00;;;;11158673;26;20349;-77
2024/04/10 01:53:01;;;;;;;17.87;2.93;;;;;7.10;101746.00;;;;11141688;26;20608;-87
2024/04/10 01:58:03;;;;;;;14.40;3.60;;;;;7.10;101756.00;;;;11185684;26;20288;-87
2024/04/10 02:03:04;;;;;;;13.83;2.93;;;;;7.10;101763.00;;;;11210244;25;20301;-87
2024/04/10 02:08:06;;;;;;;13.27;2.53;;;;;7.10;101774.00;;;;11193066;25;20255;-86
2024/04/10 02:13:07;;;;;;;10.27;2.43;;;;;7.10;101770.00;;;;11175729;26;20310;-85
2024/04/10 02:18:09;;;;;;;15.23;2.77;;;;;7.00;101779.00;;;;11082661;26;20843;-87
2024/04/10 02:23:10;;;;;;;13.30;3.60;;;;;7.10;101797.00;;;;11088551;26;20260;-86
2024/04/10 02:28:12;;;;;;;14.70;2.33;;;;;7.00;101795.00;;;;11169272;26;20726;-87
2024/04/10 02:33:14;;;;;;;12.53;3.20;;;;;7.00;101802.00;;;;11137375;26;20261;-87
2024/04/10 02:38:15;;;;;;;17.13;3.30;;;;;7.00;101820.00;;;;11147283;26;20259;-87
2024/04/10 02:43:17;;;;;;;15.00;3.07;;;;;7.00;101811.00;;;;11156969;26;20302;-87
2024/04/10 02:48:18;;;;;;;12.90;3.13;;;;;6.90;101823.00;;;;11138488;26;20739;-86
2024/04/10 02:53:21;;;;;;;9.03;2.20;;;;;6.90;101823.00;;;;11139276;26;20328;-84
2024/04/10 02:58:22;;;;;;;15.83;2.40;;;;;6.80;101835.00;;;;11198243;26;20259;-86
2024/04/10 03:03:24;;;;;;;11.93;2.77;;;;;6.80;101850.00;;;;11174089;26;20259;-78
2024/04/10 03:08:26;;;;;;;14.63;3.13;;;;;6.70;101854.00;;;;11154714;26;20299;-78
2024/04/10 03:13:28;;;;;;;18.80;3.43;;;;;6.70;101862.00;;;;11184400;26;20269;-79
2024/04/10 03:18:30;;;;;;;13.97;2.83;;;;;6.70;101873.00;;;;11210802;25;20259;-78
2024/04/10 03:23:31;;;;;;;12.07;2.90;;;;;6.60;101876.00;;;;11143183;26;20481;-78
2024/04/10 03:28:36;;;;;;;15.10;3.27;;;;;6.60;101885.00;;;;11093787;26;20264;-78
2024/04/10 03:33:38;;;;;;;9.93;2.63;;;;;6.50;101883.00;;;;11123925;26;21027;-78
2024/04/10 03:38:39;;;;;;;9.13;2.40;;;;;6.40;101886.00;;;;11091942;26;20253;-78
2024/04/10 03:43:41;;;;;;;12.27;2.60;;;;;6.40;101895.00;;;;11157069;26;20847;-79
2024/04/10 03:48:43;;;;;;;11.13;3.03;;;;;6.40;101905.00;;;;11124233;26;20311;-78
2024/04/10 03:53:44;;;;;;;16.77;3.20;;;;;6.40;101917.00;;;;11149715;26;20287;-78
2024/04/10 03:58:49;;;;;;;10.17;3.17;;;;;6.30;101921.00;;;;11140536;26;20264;-78
2024/04/10 04:03:52;;;;;;;11.00;2.70;;;;;6.30;101932.00;;;;11197564;26;20290;-79
2024/04/10 04:08:54;;;;;;;13.33;2.60;;;;;6.30;101952.00;;;;11144495;26;20284;-78
2024/04/10 04:13:56;;;;;;;11.00;3.33;;;;;6.30;101958.00;;;;11154812;26;20263;-76
2024/04/10 04:18:58;;;;;;;14.70;3.50;;;;;6.20;101952.00;;;;11161959;26;20264;-78
2024/04/10 04:24:00;;;;;;;12.53;2.73;;;;;6.20;101968.00;;;;11186944;26;20256;-77
2024/04/10 04:29:02;;;;;;;10.83;2.47;;;;;6.20;101971.00;;;;11157122;26;21112;-77
2024/04/10 04:34:09;;;;;;;11.67;2.70;;;;;6.10;101979.00;;;;11195764;26;21046;-78
2024/04/10 04:39:13;;;;;;;12.43;2.90;;;;;6.10;101981.00;;;;11193612;26;20306;-78
2024/04/10 04:44:14;;;;;;;14.37;3.37;;;;;6.00;102002.00;;;;11163371;26;20264;-79
2024/04/10 04:49:16;;;;;;;17.30;3.10;;;;;6.10;102011.00;;;;11193484;26;20351;-77
2024/04/10 04:54:17;;;;;;;16.03;4.10;;;;;6.00;102018.00;;;;11145015;26;20266;-77
2024/04/10 04:59:19;;;;;;;17.47;4.13;;;;;6.10;102028.00;;;;11168838;26;20267;-77
2024/04/10 05:09:49;;;;;;;18.33;2.87;;;;;6.20;102044.00;;;;11166790;26;20706;-79
2024/04/10 05:14:51;;;;;;;12.77;3.40;;;;;6.20;102053.00;;;;11158263;26;20260;-77
2024/04/10 05:19:52;;;;;;;16.13;3.53;;;;;6.30;102065.00;;;;11150995;26;20327;-77
2024/04/10 05:24:54;;;;;;;12.97;3.10;;;;;6.50;102072.00;;;;11195065;25;20301;-79
2024/04/10 05:29:57;;;;;;;11.20;3.10;;;;;6.80;102082.00;;;;11191440;26;20345;-79
2024/04/10 05:34:59;;;;;;;16.10;3.60;;;;;7.00;102087.00;;;;11175071;26;20244;-78
2024/04/10 05:40:16;;;;;;;15.13;3.53;;;;;7.40;102102.00;;;;11167199;26;20282;-78
2024/04/10 05:45:19;;;;;;;10.73;2.83;;;;;7.90;102113.00;;;;11185074;26;20333;-79
2024/04/10 05:50:21;;;;;;;15.53;3.27;;;;;8.30;102118.00;;;;11221482;26;20263;-78
2024/04/10 05:55:22;;;;;;;13.87;3.13;;;;;8.60;102121.00;;;;11192453;26;20286;-78
2024/04/10 06:00:24;;;;;;;7.67;2.30;;;;;8.80;102136.00;;;;11155119;26;20835;-78
2024/04/10 06:05:26;;;;;;;13.60;2.70;;;;;9.00;102146.00;;;;11182892;26;20264;-79
2024/04/10 06:10:27;;;;;;;8.67;2.93;;;;;9.30;102152.00;;;;11190446;26;20613;-78
2024/04/10 06:15:28;;;;;;;11.33;3.10;;;;;9.50;102158.00;;;;11196650;26;20927;-77
2024/04/10 06:20:30;;;;;;;13.73;3.60;;;;;9.70;102160.00;;;;11140603;26;20626;-78
2024/04/10 06:25:32;;;;;;;10.80;3.10;;;;;10.10;102163.00;;;;11172670;26;20259;-78
2024/04/10 06:30:33;;;;;;;10.23;3.30;;;;;10.60;102171.00;;;;11127083;26;20626;-87
2024/04/10 06:35:36;;;;;;;8.90;2.70;;;;;11.00;102177.00;;;;11143351;26;20274;-78
2024/04/10 06:40:37;;;;;;;10.67;2.93;;;;;11.30;102172.00;;;;11155275;26;20256;-79
2024/04/10 06:45:39;;;;;;;11.13;2.80;;;;;11.70;102196.00;;;;11172190;26;20267;-78
2024/04/10 06:50:40;;;;;;;13.63;3.07;;;;;12.00;102196.00;;;;11151583;26;20271;-79
2024/04/10 06:55:52;;;;;;;15.20;3.00;;;;;12.20;102191.00;;;;11176811;26;20267;-79
2024/04/10 07:00:56;;;;;;;6.90;2.67;;;;;12.50;102202.00;;;;11184083;26;20991;-79
2024/04/10 07:06:14;;;;;;;7.05;2.80;;;;;12.80;102201.00;;;;11187541;26;20686;-79
2024/04/10 07:11:20;;;;;;;13.37;3.03;;;;;13.00;102225.00;;;;11170913;26;20289;-79
2024/04/10 07:16:26;;;;;;;14.03;3.23;;;;;13.20;102222.00;;;;11187042;26;20255;-79
2024/04/10 07:21:28;;;;;;;16.30;3.35;;;;;13.40;102235.00;;;;11143848;26;20255;-79
2024/04/10 07:26:30;;;;;;;9.40;2.42;;;;;13.60;102243.00;;;;11185832;26;20360;-79
2024/04/10 07:31:32;;;;;;;9.55;2.70;;;;;13.60;102263.00;;;;11176536;26;20303;-80
2024/04/10 07:36:37;;;;;;;6.35;3.13;;;;;13.80;102266.00;;;;11182206;26;20278;-80
2024/04/10 07:41:43;;;;;;;17.60;2.72;;;;;13.90;102276.00;;;;11093665;26;20256;-79
2024/04/10 07:46:45;;;;;;;12.82;2.90;;;;;14.20;102276.00;;;;11078518;26;20260;-79
2024/04/10 07:51:46;;;;;;;9.63;2.33;;;;;14.50;102276.00;;;;11198794;26;20370;-78
2024/04/10 07:56:47;;;;;;;10.80;2.17;;;;;14.50;102280.00;;;;11140437;26;20255;-78
2024/04/10 08:01:49;;;;;;;11.55;2.60;;;;;14.90;102281.00;;;;11125801;26;20260;-79
2024/04/10 08:06:50;;;;;;;14.25;3.25;;;;;14.90;102291.00;;;;11098101;26;20260;-77
2024/04/10 08:11:52;;;;;;;9.07;2.13;;;;;15.30;102297.00;;;;11187112;26;20655;-78
2024/04/10 08:16:54;;;;;;;10.25;2.67;;;;;15.40;102298.00;;;;11197319;26;20306;-79
2024/04/10 08:21:58;;;;;;;9.80;2.17;;;;;15.60;102297.00;;;;11197320;26;20255;-78
2024/04/10 08:27:02;;;;;;;7.40;2.00;;;;;15.60;102307.00;;;;11194719;26;20287;-79
2024/04/10 08:32:05;;;;;;;9.35;2.10;;;;;15.90;102307.00;;;;11193554;26;20252;-79
2024/04/10 08:37:06;;;;;;;10.93;2.10;;;;;16.60;102325.00;;;;11161712;26;20315;-79
2024/04/10 08:42:12;;;;;;;8.30;1.88;;;;;15.90;102328.00;;;;11203964;26;20278;-80
2024/04/10 08:47:15;;;;;;;9.20;2.10;;;;;15.50;102323.00;;;;11194707;26;20248;-80
2024/04/10 08:52:18;;;;;;;5.40;1.77;;;;;16.20;102332.00;;;;11220452;26;20329;-84
2024/04/10 08:57:20;;;;;;;8.88;1.83;;;;;16.60;102332.00;;;;11182079;26;20263;-84
2024/04/10 09:02:22;;;;;;;7.50;1.70;;;;;17.40;102333.00;;;;11143400;26;20270;-84
2024/04/10 09:07:24;;;;;;;9.75;2.20;;;;;18.20;102338.00;;;;11198311;26;20278;-85
2024/04/10 09:12:25;;;;;;;7.22;2.17;;;;;18.60;102342.00;;;;11080291;26;21097;-84
2024/04/10 09:17:27;;;;;;;9.25;2.22;;;;;18.80;102349.00;;;;11145789;26;20294;-84
2024/04/10 09:22:28;;;;;;;6.63;2.30;;;;;19.40;102364.00;;;;11167937;26;20929;-80
2024/04/10 09:27:30;;;;;;;5.65;1.75;;;;;19.00;102366.00;;;;11134705;26;20257;-84
2024/04/10 09:32:33;;;;;;;13.50;1.95;;;;;18.60;102363.00;;;;11128644;26;20290;-83
2024/04/10 09:37:35;;;;;;;3.95;1.60;;;;;19.40;102355.00;;;;11155266;26;20319;-84
2024/04/10 09:42:44;;;;;;;3.67;1.40;;;;;19.90;102359.00;;;;11080527;26;20392;-82
2024/04/10 09:47:46;;;;;;;10.82;1.80;;;;;19.80;102372.00;;;;11147150;26;20291;-84
2024/04/10 09:52:51;;;;;;;5.30;1.58;;;;;19.20;102370.00;;;;11162438;26;21028;-84
2024/04/10 09:57:53;;;;;;;3.58;1.27;;;;;17.70;102359.00;;;;11149571;26;20290;-84
2024/04/10 10:03:05;;;;;;;4.80;1.23;;;;;16.20;102375.00;;;;11186115;26;20358;-78
2024/04/10 10:08:13;;;;;;;2.55;1.13;;;;;17.50;102351.00;;;;11178081;26;20278;-80
2024/04/10 10:13:24;;;;;;;3.53;1.10;;;;;18.90;102358.00;;;;11135220;26;20307;-80
2024/04/10 10:18:27;;;;;;;3.63;1.10;;;;;20.10;102374.00;;;;11221973;25;20256;-80
2024/04/10 10:23:37;;;;;;;4.85;1.15;;;;;20.90;102375.00;;;;11215009;26;20342;-77
2024/04/10 10:30:22;;;;;;;1.98;0.70;;;;;21.40;102386.00;;;;11337158;25;20448;-77
2024/04/10 10:35:23;;;;;;;3.55;1.10;;;;;21.50;102391.00;;;;11141768;26;20636;-77
2024/04/10 10:40:25;;;;;;;4.15;1.17;;;;;21.70;102383.00;;;;11178658;26;20302;-77
2024/04/10 10:45:27;;;;;;;4.05;1.20;;;;;21.10;102386.00;;;;11197796;26;20310;-77
2024/04/10 10:50:29;;;;;;;4.07;0.95;;;;;20.40;102386.00;;;;11205075;26;20270;-78
2024/04/10 10:55:31;;;;;;;5.80;1.67;;;;;19.40;102389.00;;;;11150107;26;20282;-77
2024/04/10 11:00:34;;;;;;;6.13;1.05;;;;;20.10;102382.00;;;;11259787;25;20306;-77
2024/04/10 11:05:35;;;;;;;4.85;1.05;;;;;21.00;102377.00;;;;11256980;26;20258;-78
2024/04/10 11:10:37;;;;;;;6.30;1.08;;;;;21.50;102382.00;;;;11246927;26;21007;-79
2024/04/10 11:15:45;;;;;;;5.82;1.15;;;;;21.60;102387.00;;;;11240173;25;20736;-78
2024/04/10 11:20:49;;;;;;;3.33;1.20;;;;;22.00;102377.00;;;;11265985;25;20254;-79
2024/04/10 11:25:51;;;;;;;4.68;1.67;;;;;21.20;102377.00;;;;11185356;26;20255;-79
2024/04/10 11:30:53;;;;;;;5.10;1.10;;;;;21.80;102384.00;;;;11174522;26;20676;-80
2024/04/10 11:35:59;;;;;;;4.57;1.65;;;;;22.20;102377.00;;;;11270496;25;20270;-77
2024/04/10 11:41:04;;;;;;;3.47;1.50;;;;;22.30;102383.00;;;;11249972;26;20278;-77
2024/04/10 11:46:09;;;;;;;3.15;1.10;;;;;22.30;102389.00;;;;11232694;26;20270;-79
2024/04/10 11:51:10;;;;;;;2.85;1.05;;;;;22.60;102390.00;;;;11224665;26;20690;-78
2024/04/10 11:56:12;;;;;;;6.35;1.30;;;;;23.20;102395.00;;;;11229179;26;20255;-78
2024/04/10 12:01:14;;;;;;;3.33;1.40;;;;;23.00;102383.00;;;;11248585;26;20255;-77
2024/04/10 12:06:16;;;;;;;5.35;1.50;;;;;22.40;102396.00;;;;11259211;26;20737;-77
2024/04/10 12:11:21;;;;;;;3.63;1.15;;;;;22.80;102396.00;;;;11242466;25;20283;-77
2024/04/10 12:16:24;;;;;;;4.82;1.77;;;;;23.30;102392.00;;;;11209205;26;20301;-77
2024/04/10 12:21:25;;;;;;;4.20;1.80;;;;;23.00;102396.00;;;;11227507;26;20361;-85
2024/04/10 12:26:30;;;;;;;4.32;1.58;;;;;23.20;102387.00;;;;11245737;26;20270;-85
2024/04/10 12:31:31;;;;;;;6.85;1.75;;;;;23.40;102393.00;;;;11228244;26;20254;-85
2024/04/10 12:41:54;;;;;;;4.53;1.55;;;;;23.20;102388.00;;;;11238456;26;20334;-87
2024/04/10 12:46:58;;;;;;;4.35;1.55;;;;;23.10;102396.00;;;;11219401;25;20292;-87
2024/04/10 12:51:59;;;;;;;7.85;1.55;;;;;22.90;102394.00;;;;11219298;26;20259;-89
2024/04/10 13:03:01;;;;;;;5.95;1.52;;;;;22.30;102393.00;;;;11126812;26;20311;-89
2024/04/10 13:08:03;;;;;;;2.60;1.20;;;;;22.10;102400.00;;;;11109933;26;20703;-88
2024/04/10 13:13:05;;;;;;;4.57;1.58;;;;;21.80;102389.00;;;;11125168;26;20257;-88
2024/04/10 13:18:07;;;;;;;4.50;1.33;;;;;21.80;102393.00;;;;11139209;26;20557;-89
2024/04/10 13:23:11;;;;;;;4.70;1.33;;;;;21.70;102402.00;;;;11137102;26;20560;-87
2024/04/10 13:28:12;;;;;;;5.60;1.23;;;;;21.80;102399.00;;;;11095227;26;20292;-86
2024/04/10 13:33:14;;;;;;;7.20;1.48;;;;;21.80;102401.00;;;;11131737;26;20272;-79
2024/04/10 13:38:16;;;;;;;4.60;1.15;;;;;21.90;102393.00;;;;11104664;26;20591;-79
2024/04/10 13:43:17;;;;;;;5.35;1.40;;;;;21.60;102406.00;;;;11104284;26;20261;-80
2024/04/10 13:48:19;;;;;;;3.17;1.42;;;;;21.50;102406.00;;;;11082426;26;20976;-80
2024/04/10 13:53:21;;;;;;;4.00;1.33;;;;;20.50;102404.00;;;;11112318;26;20261;-79
2024/04/10 13:58:23;;;;;;;3.97;1.00;;;;;20.80;102402.00;;;;11127849;26;20369;-82
2024/04/10 14:03:24;;;;;;;2.42;1.00;;;;;21.00;102385.00;;;;11080072;26;20272;-81
2024/04/10 14:08:26;;;;;;;5.55;1.45;;;;;20.60;102389.00;;;;11112377;26;20247;-81
2024/04/10 14:13:28;;;;;;;4.68;1.45;;;;;20.50;102389.00;;;;11137917;26;20283;-81
2024/04/10 14:18:30;;;;;;;5.43;1.52;;;;;20.30;102397.00;;;;11101915;26;20260;-80
2024/04/10 14:23:32;;;;;;;6.18;1.48;;;;;20.10;102401.00;;;;11099508;26;20303;-81
2024/04/10 14:28:34;;;;;;;3.95;1.10;;;;;20.00;102386.00;;;;11072994;26;21211;-82
2024/04/10 14:33:39;;;;;;;5.05;1.20;;;;;19.70;102387.00;;;;11043321;26;20256;-80
2024/04/10 14:38:41;;;;;;;4.95;1.30;;;;;19.80;102390.00;;;;11135938;26;20252;-80
2024/04/10 14:43:45;;;;;;;7.68;1.95;;;;;19.90;102389.00;;;;11102236;26;20257;-86
2024/04/10 14:48:47;;;;;;;3.70;1.27;;;;;20.20;102383.00;;;;11137540;26;20256;-87
2024/04/10 14:53:49;;;;;;;5.50;1.23;;;;;20.10;102373.00;;;;11106638;26;20290;-85
2024/04/10 14:58:51;;;;;;;5.13;1.50;;;;;20.00;102375.00;;;;11100024;26;20269;-84
2024/04/10 15:03:54;;;;;;;7.20;1.65;;;;;20.20;102364.00;;;;11100564;26;20288;-86
2024/04/10 15:08:57;;;;;;;4.40;1.40;;;;;19.10;102383.00;;;;11097011;26;20726;-85
2024/04/10 15:13:59;;;;;;;5.90;1.73;;;;;19.90;102365.00;;;;11109169;26;20261;-85
2024/04/10 15:19:02;;;;;;;3.80;1.65;;;;;18.60;102366.00;;;;11071712;26;20268;-85
2024/04/10 15:24:05;;;;;;;8.75;1.80;;;;;18.50;102358.00;;;;11108463;26;20304;-85
2024/04/10 15:29:11;;;;;;;9.57;1.58;;;;;17.80;102362.00;;;;11086423;26;20928;-86
2024/04/10 15:34:13;;;;;;;3.63;1.30;;;;;17.50;102365.00;;;;11085216;26;20750;-85
2024/04/10 15:39:15;;;;;;;4.40;1.48;;;;;17.20;102360.00;;;;11117512;26;20257;-85
2024/04/10 15:44:24;;;;;;;7.85;1.92;;;;;17.10;102359.00;;;;11110239;26;20295;-85
2024/04/10 15:49:27;;;;;;;3.92;1.23;;;;;17.30;102376.00;;;;11107739;26;20275;-84
2024/04/10 15:54:29;;;;;;;5.88;1.75;;;;;17.20;102384.00;;;;11133332;26;20253;-84
2024/04/10 15:59:31;;;;;;;5.63;1.23;;;;;17.00;102382.00;;;;11109774;26;20375;-85
2024/04/10 16:04:35;;;;;;;7.97;1.90;;;;;16.90;102381.00;;;;11114417;26;20312;-85
2024/04/10 16:09:37;;;;;;;4.20;1.30;;;;;16.60;102377.00;;;;11118597;26;20279;-86
2024/04/10 16:14:38;;;;;;;4.43;1.40;;;;;16.30;102372.00;;;;11114694;26;20256;-83
2024/04/10 16:19:40;;;;;;;7.10;1.58;;;;;16.30;102387.00;;;;11117855;26;20584;-87
2024/04/10 16:24:42;;;;;;;3.17;1.13;;;;;16.20;102367.00;;;;11119663;26;20248;-83
2024/04/10 16:29:44;;;;;;;4.47;1.17;;;;;16.10;102356.00;;;;11111985;26;20257;-84
2024/04/10 16:34:46;;;;;;;7.72;1.75;;;;;16.00;102367.00;;;;11115327;26;20301;-84
2024/04/10 16:39:48;;;;;;;3.55;1.10;;;;;15.90;102374.00;;;;11133511;26;20380;-83
2024/04/10 16:44:50;;;;;;;5.70;1.30;;;;;15.70;102375.00;;;;11162008;26;20284;-85
2024/04/10 16:49:52;;;;;;;5.85;1.35;;;;;15.40;102386.00;;;;11087204;26;20265;-84
2024/04/10 16:54:54;;;;;;;2.83;1.13;;;;;15.20;102397.00;;;;11094997;26;21358;-84
2024/04/10 16:59:56;;;;;;;7.13;1.30;;;;;15.20;102392.00;;;;11119852;26;20256;-84
2024/04/10 17:04:57;;;;;;;7.70;2.10;;;;;15.10;102389.00;;;;11075950;26;20277;-78
2024/04/10 17:09:59;;;;;;;4.30;1.85;;;;;15.00;102384.00;;;;11048440;26;20344;-77
2024/04/10 17:15:01;;;;;;;5.82;1.63;;;;;14.90;102387.00;;;;11135841;26;20282;-78
2024/04/10 17:25:39;;;;;;;6.15;1.67;;;;;14.60;102396.00;;;;11038427;26;21120;-80
2024/04/10 17:30:40;;;;;;;8.18;1.73;;;;;14.40;102398.00;;;;11116192;26;20615;-80
2024/04/10 17:35:42;;;;;;;6.20;1.17;;;;;14.30;102401.00;;;;11114467;26;20257;-80
2024/04/10 17:40:44;;;;;;;5.33;1.50;;;;;14.10;102396.00;;;;11142986;26;20319;-79
2024/04/10 17:45:45;;;;;;;9.63;1.60;;;;;14.00;102394.00;;;;11103781;26;20342;-80
2024/04/10 17:50:47;;;;;;;6.40;1.77;;;;;13.80;102388.00;;;;11109261;26;20260;-80
2024/04/10 17:55:49;;;;;;;3.40;1.30;;;;;13.70;102393.00;;;;11109455;26;20348;-79
2024/04/10 18:01:04;;;;;;;8.03;1.70;;;;;13.80;102368.00;;;;11099340;26;20264;-79
2024/04/10 18:06:13;;;;;;;5.13;1.90;;;;;13.90;102394.00;;;;11133286;26;20301;-79
2024/04/10 18:11:16;;;;;;;7.60;1.53;;;;;13.90;102405.00;;;;11101788;26;20694;-77
2024/04/10 18:16:18;;;;;;;7.97;1.47;;;;;13.80;102396.00;;;;11078524;26;20394;-77
2024/04/10 18:21:19;;;;;;;8.40;1.83;;;;;13.70;102404.00;;;;11106657;26;20303;-78
2024/04/10 18:26:22;;;;;;;5.37;1.20;;;;;13.50;102391.00;;;;11103255;26;20264;-77
2024/04/10 18:31:23;;;;;;;5.33;1.30;;;;;13.30;102406.00;;;;11129921;26;20273;-78
2024/04/10 18:36:25;;;;;;;2.17;1.17;;;;;13.20;102418.00;;;;11101485;26;20287;-78
2024/04/10 18:41:27;;;;;;;5.90;1.40;;;;;13.00;102415.00;;;;11098990;26;20615;-78
2024/04/10 18:46:29;;;;;;;6.37;1.77;;;;;13.00;102409.00;;;;11139681;26;20587;-78
2024/04/10 18:51:31;;;;;;;6.80;1.70;;;;;12.90;102422.00;;;;11110036;26;20767;-77
2024/04/10 18:56:32;;;;;;;6.53;1.63;;;;;12.70;102424.00;;;;11091886;26;20256;-77
2024/04/10 19:01:34;;;;;;;6.83;1.57;;;;;12.60;102427.00;;;;11137996;26;20265;-77
2024/04/10 19:06:35;;;;;;;5.57;1.23;;;;;12.40;102429.00;;;;11110831;26;20302;-77
2024/04/10 19:11:37;;;;;;;4.87;1.80;;;;;12.30;102441.00;;;;11093918;26;20295;-77
2024/04/10 19:16:39;;;;;;;6.53;1.63;;;;;12.20;102437.00;;;;11108810;26;20719;-77
2024/04/10 19:21:41;;;;;;;4.60;1.70;;;;;12.10;102443.00;;;;11083584;26;20257;-79
2024/04/10 19:26:43;;;;;;;7.73;1.60;;;;;12.00;102439.00;;;;11111114;26;20345;-79
2024/04/10 19:31:45;;;;;;;5.33;1.60;;;;;11.90;102436.00;;;;11081295;26;20260;-79
2024/04/10 19:36:47;;;;;;;8.57;1.70;;;;;11.90;102438.00;;;;11109169;26;20711;-79
2024/04/10 19:41:49;;;;;;;9.97;2.13;;;;;11.90;102437.00;;;;11135922;26;20288;-79
2024/04/10 19:46:51;;;;;;;8.07;1.50;;;;;11.80;102434.00;;;;11074181;26;20341;-79
2024/04/10 19:51:52;;;;;;;7.77;1.70;;;;;11.70;102433.00;;;;11084993;26;20253;-79
2024/04/10 19:56:54;;;;;;;6.10;1.37;;;;;11.70;102439.00;;;;11111606;26;20283;-79
2024/04/10 20:01:56;;;;;;;7.57;1.90;;;;;11.60;102439.00;;;;11110154;26;20264;-79
2024/04/10 20:06:57;;;;;;;6.63;1.90;;;;;11.50;102441.00;;;;11111018;26;20253;-79
2024/04/10 20:11:58;;;;;;;5.03;1.60;;;;;11.40;102429.00;;;;11106887;26;20249;-79
2024/04/10 20:17:01;;;;;;;6.00;1.40;;;;;11.40;102430.00;;;;11116644;26;20256;-80
2024/04/10 20:22:02;;;;;;;5.53;1.60;;;;;11.30;102427.00;;;;11105641;26;20263;-80
2024/04/10 20:27:04;;;;;;;6.87;1.67;;;;;11.30;102434.00;;;;11109817;26;20361;-79
2024/04/10 20:32:06;;;;;;;5.33;1.67;;;;;11.20;102422.00;;;;11109866;26;20638;-82
2024/04/10 20:37:07;;;;;;;2.83;1.40;;;;;11.20;102415.00;;;;11139931;26;20287;-82
2024/04/10 20:42:10;;;;;;;7.17;1.53;;;;;11.20;102419.00;;;;11141454;26;20262;-81
2024/04/10 20:47:12;;;;;;;5.33;1.47;;;;;11.20;102430.00;;;;11108531;26;20910;-82
2024/04/10 20:52:14;;;;;;;4.27;1.73;;;;;11.10;102438.00;;;;11081053;26;20303;-81
2024/04/10 20:57:15;;;;;;;7.97;1.73;;;;;11.10;102441.00;;;;11053578;26;20265;-82
2024/04/10 21:02:19;;;;;;;7.37;2.03;;;;;11.10;102435.00;;;;11106240;26;20256;-82
2024/04/10 22:11:29;;;;;;;2.60;1.30;;;;;11.80;102409.00;;;;11131859;26;20291;-77
2024/04/10 22:23:57;;;;;;;4.70;1.53;;;;;11.80;102408.00;;;;11111124;26;20249;-78
2024/04/10 22:27:14;;;;;;;5.07;1.33;;;;;11.60;102401.00;;;;11114799;26;20813;-77
2024/04/10 22:32:16;;;;;;;4.07;1.30;;;;;11.50;102404.00;;;;11115037;26;20382;-77
2024/04/10 22:37:19;;;;;;;5.10;1.30;;;;;11.50;102407.00;;;;11105943;26;20256;-77
2024/04/10 22:42:21;;;;;;;2.43;1.30;;;;;11.50;102401.00;;;;11107335;26;21078;-78
2024/04/10 22:47:22;;;;;;;7.77;1.60;;;;;11.50;102406.00;;;;11110198;26;20265;-77
2024/04/10 22:52:24;;;;;;;5.17;1.27;;;;;11.50;102422.00;;;;11127537;26;21207;-79
2024/04/10 22:57:26;;;;;;;4.50;1.40;;;;;11.60;102431.00;;;;11132650;26;20257;-80
2024/04/10 23:02:27;;;;;;;6.40;1.50;;;;;11.70;102423.00;;;;11120270;26;20721;-79
2024/04/10 23:07:29;;;;;;;4.83;1.60;;;;;11.70;102429.00;;;;11074928;26;20774;-79
2024/04/10 23:12:50;;;;;;;4.87;1.27;;;;;11.80;102417.00;;;;11111851;26;20594;-79
2024/04/10 23:17:52;;;;;;;3.83;1.40;;;;;11.80;102422.00;;;;11108252;26;20844;-79
2024/04/10 23:22:54;;;;;;;4.03;1.23;;;;;11.80;102410.00;;;;11102084;26;20287;-79
2024/04/10 23:27:55;;;;;;;6.30;1.50;;;;;11.90;102417.00;;;;11131775;26;21735;-79
2024/04/10 23:32:56;;;;;;;4.73;1.60;;;;;11.90;102420.00;;;;11099021;26;20286;-79
2024/04/10 23:37:58;;;;;;;7.40;2.00;;;;;11.90;102434.00;;;;11111338;26;20256;-79
2024/04/10 23:43:00;;;;;;;7.77;1.80;;;;;12.00;102430.00;;;;11133207;26;20268;-80
2024/04/10 23:48:02;;;;;;;4.80;1.50;;;;;12.00;102437.00;;;;11116180;26;20267;-80
2024/04/10 23:53:04;;;;;;;5.27;1.43;;;;;12.00;102437.00;;;;11088938;26;20274;-79
2024/04/10 23:58:10;;;;;;;4.90;1.60;;;;;12.10;102443.00;;;;11102807;26;20629;-79
